Time;durP1;ratioP1;P1;durP2;ratioP2;P2;SDS_P1;SDS_P2;PMS_P1;PMS_P2;Temp;Humidity;BMP_temperature;BMP_pressure;BME280_temperature;BME280_humidity;BME280_pressure;Samples;Min_cycle;Max_cycle;Signal;HPM_P1;HPM_P2
2023/12/08 00:01:40;;;;;;;44.80;27.20;;;;;;;-2.37;89.22;101125.70;107438;276;155775;-55
2023/12/08 00:04:12;;;;;;;45.70;26.60;;;;;;;-2.33;89.26;101125.50;107498;276;95965;-57
2023/12/08 00:06:53;;;;;;;48.90;27.80;;;;;;;-2.35;89.29;101128.42;107630;276;98230;-58
2023/12/08 00:09:30;;;;;;;49.10;29.40;;;;;;;-2.39;89.32;101122.09;107366;277;155450;-55
2023/12/08 00:12:04;;;;;;;50.00;29.00;;;;;;;-2.36;89.26;101114.71;107607;276;104379;-55
2023/12/08 00:14:44;;;;;;;47.00;26.50;;;;;;;-2.33;89.28;101110.09;107400;276;156013;-60
2023/12/08 00:17:22;;;;;;;47.90;27.70;;;;;;;-2.40;89.39;101112.98;107618;276;93499;-60
2023/12/08 00:19:54;;;;;;;50.80;27.80;;;;;;;-2.48;89.57;101113.64;107493;277;154213;-57
2023/12/08 00:22:31;;;;;;;53.80;28.70;;;;;;;-2.52;89.59;101106.99;107570;277;120289;-58
2023/12/08 00:25:06;;;;;;;49.80;28.30;;;;;;;-2.53;89.60;101105.66;107575;276;106322;-58
2023/12/08 00:27:40;;;;;;;53.50;29.00;;;;;;;-2.53;89.57;101102.09;107446;277;112814;-59
2023/12/08 00:30:13;;;;;;;50.50;27.50;;;;;;;-2.55;89.56;101102.20;107561;277;95307;-60
2023/12/08 00:32:48;;;;;;;47.20;26.90;;;;;;;-2.56;89.62;101101.96;107425;277;155093;-60
2023/12/08 00:35:26;;;;;;;50.30;26.80;;;;;;;-2.57;89.77;101105.55;107554;276;120095;-59
2023/12/08 00:38:11;;;;;;;50.80;27.20;;;;;;;-2.62;89.75;101105.50;107480;276;155183;-55
2023/12/08 00:40:43;;;;;;;44.70;26.50;;;;;;;-2.61;89.91;101097.85;107589;276;113971;-54
2023/12/08 00:43:20;;;;;;;46.40;26.50;;;;;;;-2.60;89.92;101092.11;107414;277;155418;-59
2023/12/08 00:46:02;;;;;;;46.10;26.80;;;;;;;-2.57;89.95;101091.41;107484;277;98897;-59
2023/12/08 00:48:41;;;;;;;46.70;27.60;;;;;;;-2.60;90.06;101081.19;107580;276;120860;-54
2023/12/08 00:51:18;;;;;;;48.40;26.30;;;;;;;-2.57;89.99;101080.48;107474;276;155245;-56
2023/12/08 00:53:59;;;;;;;47.80;27.30;;;;;;;-2.53;90.09;101080.92;107646;276;113234;-55
2023/12/08 00:56:36;;;;;;;44.00;25.70;;;;;;;-2.51;90.12;101084.02;107456;276;155174;-55
2023/12/08 00:59:20;;;;;;;44.20;24.80;;;;;;;-2.51;90.22;101086.33;107575;276;97575;-57
2023/12/08 01:02:00;;;;;;;45.10;25.30;;;;;;;-2.51;90.26;101079.44;107384;276;156208;-57
2023/12/08 01:04:35;;;;;;;47.30;26.20;;;;;;;-2.54;90.38;101084.73;107508;276;106294;-54
2023/12/08 01:07:19;;;;;;;49.80;27.60;;;;;;;-2.58;90.41;101093.95;107922;275;114184;-54
2023/12/08 01:10:07;;;;;;;41.50;23.30;;;;;;;-2.50;90.31;101104.05;107684;275;94334;-59
2023/12/08 01:12:43;;;;;;;43.10;24.70;;;;;;;-2.51;90.36;101101.64;107980;275;97085;-58
2023/12/08 01:15:18;;;;;;;50.40;27.20;;;;;;;-2.50;90.47;101109.36;107787;275;155047;-57
2023/12/08 01:17:50;;;;;;;45.10;25.50;;;;;;;-2.50;90.42;101115.34;107941;275;106249;-53
2023/12/08 01:20:22;;;;;;;49.10;27.10;;;;;;;-2.45;90.31;101121.05;107828;275;155190;-54
2023/12/08 01:22:54;;;;;;;43.30;24.80;;;;;;;-2.42;90.26;101113.97;107927;275;95346;-55
2023/12/08 01:25:34;;;;;;;46.30;25.50;;;;;;;-2.38;90.19;101104.57;107840;275;156433;-56
2023/12/08 01:28:18;;;;;;;43.80;24.60;;;;;;;-2.33;90.15;101090.86;107777;275;120122;-54
2023/12/08 01:30:52;;;;;;;41.70;24.60;;;;;;;-2.37;90.13;101090.92;107947;275;105865;-54
2023/12/08 01:33:32;;;;;;;41.90;24.10;;;;;;;-2.37;90.28;101097.79;107779;275;156136;-55
2023/12/08 01:36:10;;;;;;;42.60;22.80;;;;;;;-2.37;90.07;101105.23;107909;275;94662;-55
2023/12/08 01:38:46;;;;;;;40.90;24.40;;;;;;;-2.43;90.18;101102.91;107682;275;155049;-57
2023/12/08 01:41:30;;;;;;;41.00;22.60;;;;;;;-2.42;90.13;101106.21;107866;275;119771;-57
2023/12/08 01:44:09;;;;;;;41.50;24.70;;;;;;;-2.49;90.25;101108.55;107791;275;155647;-54
2023/12/08 01:46:43;;;;;;;46.80;25.30;;;;;;;-2.50;90.15;101104.96;107912;275;114765;-54
2023/12/08 01:49:26;;;;;;;43.10;24.50;;;;;;;-2.49;90.12;101099.38;107804;267;156595;-55
2023/12/08 01:52:06;;;;;;;50.00;25.80;;;;;;;-2.45;90.10;101094.02;107867;275;96319;-55
2023/12/08 01:54:43;;;;;;;42.10;23.50;;;;;;;-2.42;90.03;101091.42;107917;275;120975;-54
2023/12/08 01:57:19;;;;;;;40.80;22.90;;;;;;;-2.39;90.02;101100.25;107740;275;155852;-54
2023/12/08 01:59:56;;;;;;;44.60;24.40;;;;;;;-2.37;90.05;101102.41;107971;275;114314;-60
2023/12/08 02:02:31;;;;;;;39.80;21.50;;;;;;;-2.32;89.87;101098.73;107796;274;155245;-59
2023/12/08 02:05:04;;;;;;;40.40;22.70;;;;;;;-2.33;89.86;101090.69;107909;274;96464;-61
2023/12/08 02:07:36;;;;;;;47.50;26.50;;;;;;;-2.35;89.88;101089.23;107745;274;154410;-59
2023/12/08 02:10:09;;;;;;;41.30;22.80;;;;;;;-2.34;89.86;101088.48;107829;275;105605;-60
2023/12/08 02:12:42;;;;;;;41.80;22.40;;;;;;;-2.34;89.84;101083.18;107920;275;114570;-54
2023/12/08 02:15:17;;;;;;;42.60;23.10;;;;;;;-2.43;89.88;101079.11;107739;275;155366;-54
2023/12/08 02:17:50;;;;;;;;;;;;;;;-2.46;89.88;101081.39;107732;276;98052;-59
2023/12/08 02:20:31;;;;;;;45.00;24.40;;;;;;;-2.42;89.80;101077.30;107598;276;141215;-59
2023/12/08 02:23:13;;;;;;;42.00;23.00;;;;;;;-2.44;89.86;101074.23;107766;275;106159;-55
2023/12/08 02:25:52;;;;;;;42.00;24.40;;;;;;;-2.42;89.76;101063.00;107719;275;155217;-56
2023/12/08 02:28:27;;;;;;;41.10;22.80;;;;;;;-2.38;89.69;101072.33;107871;275;95824;-58
2023/12/08 02:31:06;;;;;;;44.40;22.60;;;;;;;-2.35;89.65;101081.50;107960;275;97690;-58
2023/12/08 02:33:46;;;;;;;46.10;23.70;;;;;;;-2.34;89.68;101086.36;107812;275;120295;-57
2023/12/08 02:36:22;;;;;;;36.80;20.80;;;;;;;-2.36;89.61;101086.66;107920;275;105981;-57
2023/12/08 02:38:57;;;;;;;41.80;23.00;;;;;;;-2.41;89.61;101083.92;107816;275;154499;-58
2023/12/08 02:41:40;;;;;;;41.20;22.50;;;;;;;-2.42;89.53;101082.59;107852;274;93762;-58
2023/12/08 02:44:21;;;;;;;38.20;22.20;;;;;;;-2.45;89.48;101088.73;107651;274;155327;-60
2023/12/08 02:46:54;;;;;;;41.00;22.60;;;;;;;-2.49;89.41;101086.88;107838;275;118474;-59
2023/12/08 02:49:36;;;;;;;41.00;21.70;;;;;;;-2.49;89.34;101084.92;107830;275;156186;-56
2023/12/08 02:52:08;;;;;;;42.30;22.10;;;;;;;-2.52;89.28;101081.63;107903;275;115120;-55
2023/12/08 02:54:39;;;;;;;39.30;21.10;;;;;;;-2.51;89.22;101084.00;107937;275;94591;-57
2023/12/08 02:57:10;;;;;;;40.20;22.40;;;;;;;-2.53;89.20;101083.95;107793;274;156641;-56
2023/12/08 02:59:45;;;;;;;37.30;20.30;;;;;;;-2.52;89.17;101084.42;107893;274;121856;-55
2023/12/08 03:02:21;;;;;;;41.70;22.90;;;;;;;-2.51;89.15;101083.46;107642;274;155084;-56
2023/12/08 03:05:03;;;;;;;42.70;22.80;;;;;;;-2.51;89.18;101075.73;107879;275;113962;-54
2023/12/08 03:07:44;;;;;;;42.30;22.50;;;;;;;-2.51;88.97;101071.30;107835;275;156098;-56
2023/12/08 03:10:19;;;;;;;41.40;22.60;;;;;;;-2.56;89.03;101076.39;107949;275;98022;-58
2023/12/08 03:12:59;;;;;;;45.70;23.20;;;;;;;-2.63;88.92;101083.65;107942;275;120491;-55
2023/12/08 03:15:38;;;;;;;46.70;22.80;;;;;;;-2.64;88.97;101098.04;107618;275;155379;-55
2023/12/08 03:18:18;;;;;;;39.90;21.10;;;;;;;-2.65;88.98;101097.89;107965;275;112950;-54
2023/12/08 03:21:03;;;;;;;45.30;22.50;;;;;;;-2.66;88.95;101103.75;107492;275;155500;-55
2023/12/08 03:23:40;;;;;;;42.10;23.20;;;;;;;-2.62;88.93;101109.70;107942;275;97356;-60
2023/12/08 03:26:20;;;;;;;44.30;22.40;;;;;;;-2.61;89.09;101116.70;107807;275;156288;-59
2023/12/08 03:29:01;;;;;;;44.50;22.90;;;;;;;-2.60;89.06;101118.38;107965;275;106137;-59
2023/12/08 03:31:41;;;;;;;40.70;21.30;;;;;;;-2.59;88.99;101117.09;107768;275;156471;-59
2023/12/08 03:34:16;;;;;;;43.50;23.70;;;;;;;-2.55;88.98;101110.50;107913;275;93213;-60
2023/12/08 03:36:58;;;;;;;43.20;22.10;;;;;;;-2.52;88.92;101107.33;107899;275;97081;-59
2023/12/08 03:39:33;;;;;;;42.80;22.80;;;;;;;-2.48;88.79;101105.54;107787;275;154207;-59
2023/12/08 03:42:07;;;;;;;47.70;23.70;;;;;;;-2.50;88.77;101113.24;107907;275;106083;-57
2023/12/08 03:44:42;;;;;;;46.00;23.90;;;;;;;-2.56;88.75;101111.65;107841;274;156411;-55
2023/12/08 03:47:26;;;;;;;46.50;24.30;;;;;;;-2.60;88.79;101111.19;107893;274;95170;-54
2023/12/08 03:50:02;;;;;;;44.00;22.70;;;;;;;-2.61;88.82;101107.89;107705;274;155192;-59
2023/12/08 03:52:44;;;;;;;42.70;23.50;;;;;;;-2.59;88.90;101103.56;107870;275;120191;-56
2023/12/08 03:55:29;;;;;;;43.70;23.60;;;;;;;-2.64;88.99;101097.81;107821;275;157487;-55
2023/12/08 03:58:12;;;;;;;44.60;23.10;;;;;;;-2.67;89.00;101098.70;107925;275;114829;-59
2023/12/08 04:00:50;;;;;;;50.80;24.00;;;;;;;-2.70;89.04;101096.04;107981;275;96647;-60
2023/12/08 04:03:29;;;;;;;45.50;23.80;;;;;;;-2.64;88.98;101099.56;107844;275;156731;-58
2023/12/08 04:06:07;;;;;;;46.40;22.70;;;;;;;-2.63;88.98;101104.47;107940;275;120303;-59
2023/12/08 04:08:45;;;;;;;43.00;22.50;;;;;;;-2.60;89.04;101101.45;107801;275;155792;-59
2023/12/08 04:11:22;;;;;;;45.20;23.00;;;;;;;-2.59;88.95;101100.71;107915;275;113827;-59
2023/12/08 04:14:00;;;;;;;51.70;24.80;;;;;;;-2.63;88.96;101096.16;107695;275;154513;-54
2023/12/08 04:16:43;;;;;;;48.00;23.90;;;;;;;-2.64;88.99;101092.36;107888;275;97065;-55
2023/12/08 04:19:22;;;;;;;50.30;23.60;;;;;;;-2.71;89.04;101098.38;107771;275;156397;-54
2023/12/08 04:22:00;;;;;;;44.50;21.50;;;;;;;-2.78;89.15;101097.38;107899;275;105723;-54
2023/12/08 04:24:34;;;;;;;49.50;25.20;;;;;;;-2.73;89.17;101094.85;107927;275;114166;-60
2023/12/08 04:27:06;;;;;;;43.80;23.40;;;;;;;-2.65;89.14;101098.08;107784;274;155337;-59
2023/12/08 04:29:43;;;;;;;46.90;24.90;;;;;;;-2.63;89.19;101092.98;107907;274;96022;-59
2023/12/08 04:32:15;;;;;;;43.60;24.30;;;;;;;-2.58;89.12;101084.09;107647;274;156176;-60
2023/12/08 04:34:49;;;;;;;47.00;25.10;;;;;;;-2.58;89.26;101078.08;107702;275;105078;-54
2023/12/08 04:37:31;;;;;;;46.30;24.00;;;;;;;-2.55;89.26;101079.30;107740;275;155209;-54
2023/12/08 04:40:09;;;;;;;52.90;24.90;;;;;;;-2.52;89.36;101084.39;107887;272;92839;-57
2023/12/08 04:42:43;;;;;;;45.70;24.00;;;;;;;-2.52;89.25;101082.11;107860;271;97772;-56
2023/12/08 04:45:17;;;;;;;42.90;22.20;;;;;;;-2.47;89.25;101078.63;107860;271;155298;-55
2023/12/08 04:47:51;;;;;;;;;;;;;;;-2.53;89.36;101076.18;107935;275;104169;-55
2023/12/08 04:50:26;;;;;;;45.10;23.50;;;;;;;-2.56;89.34;101074.04;107629;275;141295;-56
2023/12/08 04:53:06;;;;;;;53.10;26.20;;;;;;;-2.54;89.42;101073.08;107852;275;95798;-55
2023/12/08 04:55:42;;;;;;;46.40;24.90;;;;;;;-2.52;89.38;101065.56;107769;275;156044;-55
2023/12/08 04:58:13;;;;;;;;;;;;;;;-2.50;89.42;101069.13;107948;275;119972;-54
2023/12/08 05:00:49;;;;;;;50.90;27.40;;;;;;;-2.57;89.56;101074.11;107922;275;105919;-54
2023/12/08 05:03:25;;;;;;;53.50;26.60;;;;;;;-2.60;89.57;101075.70;107472;275;155389;-55
2023/12/08 05:05:56;;;;;;;54.80;27.00;;;;;;;-2.61;89.66;101067.66;107945;275;96381;-55
2023/12/08 05:08:33;;;;;;;47.90;26.40;;;;;;;-2.62;89.58;101062.80;107759;275;156275;-54
2023/12/08 05:11:09;;;;;;;52.90;25.40;;;;;;;-2.61;89.66;101062.52;107496;275;536256;-53
2023/12/08 05:13:49;;;;;;;48.90;25.90;;;;;;;-2.62;89.67;101060.48;107761;275;155474;-59
2023/12/08 05:16:23;;;;;;;40.70;23.20;;;;;;;-2.62;89.62;101072.65;107942;275;114366;-58
2023/12/08 05:19:04;;;;;;;49.40;27.60;;;;;;;-2.68;89.74;101079.54;107964;275;91944;-54
2023/12/08 05:21:39;;;;;;;48.80;24.70;;;;;;;-2.65;89.62;101082.58;107690;275;154369;-54
2023/12/08 05:24:16;;;;;;;53.10;26.60;;;;;;;-2.73;89.66;101087.08;107948;275;119532;-55
2023/12/08 05:26:58;;;;;;;52.50;25.70;;;;;;;-2.71;89.54;101077.64;107650;275;155177;-55
2023/12/08 05:29:34;;;;;;;48.50;26.00;;;;;;;-2.76;89.58;101079.30;107898;275;112998;-55
2023/12/08 05:32:10;;;;;;;53.20;27.90;;;;;;;-2.78;89.62;101082.63;107719;275;155225;-55
2023/12/08 05:34:46;;;;;;;47.30;26.10;;;;;;;-2.77;89.56;101075.46;107894;275;98753;-56
2023/12/08 05:37:22;;;;;;;49.60;25.70;;;;;;;-2.76;89.63;101075.98;107812;275;155307;-54
2023/12/08 05:39:56;;;;;;;50.50;25.80;;;;;;;-2.74;89.67;101077.97;107837;275;103303;-59
2023/12/08 05:42:41;;;;;;;54.10;28.20;;;;;;;-2.79;89.59;101076.02;107930;275;114403;-59
2023/12/08 05:45:14;;;;;;;50.40;26.70;;;;;;;-2.82;89.63;101074.17;107672;275;156565;-54
2023/12/08 05:47:50;;;;;;;49.40;25.40;;;;;;;-2.83;89.64;101069.88;107916;275;97510;-58
2023/12/08 05:50:26;;;;;;;50.40;26.30;;;;;;;-2.84;89.75;101063.42;107772;275;154909;-57
2023/12/08 05:53:02;;;;;;;52.00;25.70;;;;;;;-2.91;89.79;101057.48;107967;275;104709;-56
2023/12/08 05:55:39;;;;;;;47.90;25.70;;;;;;;-2.90;89.74;101053.00;107773;275;155957;-56
2023/12/08 05:58:15;;;;;;;54.00;25.90;;;;;;;-2.90;89.72;101049.86;107863;275;94938;-57
2023/12/08 06:00:46;;;;;;;52.00;26.20;;;;;;;-2.91;89.63;101041.07;107918;275;99809;-58
2023/12/08 06:03:26;;;;;;;55.60;28.60;;;;;;;-2.90;89.59;101044.58;107692;275;155132;-60
2023/12/08 06:06:06;;;;;;;56.10;26.60;;;;;;;-2.90;89.48;101054.39;108001;275;106480;-60
2023/12/08 06:08:41;;;;;;;56.40;27.90;;;;;;;-2.87;89.55;101051.42;107684;275;155036;-57
2023/12/08 06:11:22;;;;;;;54.20;26.30;;;;;;;-2.88;89.47;101053.22;107808;275;94459;-57
2023/12/08 06:14:05;;;;;;;49.80;25.60;;;;;;;-2.86;89.49;101048.90;107808;275;156320;-58
2023/12/08 06:16:43;;;;;;;59.60;28.40;;;;;;;-2.89;89.46;101054.89;107930;275;120283;-59
2023/12/08 06:19:22;;;;;;;52.60;27.00;;;;;;;-2.85;89.51;101052.02;107792;275;155444;-54
2023/12/08 06:22:01;;;;;;;53.90;27.10;;;;;;;-2.83;89.37;101052.97;107810;275;115097;-55
2023/12/08 06:24:35;;;;;;;55.70;25.70;;;;;;;-2.82;89.40;101053.26;107966;275;93359;-56
2023/12/08 06:27:11;;;;;;;55.50;25.90;;;;;;;-2.81;89.38;101055.48;107664;275;154402;-56
2023/12/08 06:29:43;;;;;;;50.70;25.10;;;;;;;-2.86;89.33;101059.80;107989;275;119766;-53
2023/12/08 06:32:20;;;;;;;55.10;26.90;;;;;;;-2.90;89.38;101062.88;107753;275;155268;-54
2023/12/08 06:35:05;;;;;;;56.90;28.20;;;;;;;-2.88;89.36;101058.36;107956;275;114802;-54
2023/12/08 06:37:43;;;;;;;54.50;26.60;;;;;;;-2.87;89.25;101054.25;107739;275;155292;-56
2023/12/08 06:40:20;;;;;;;60.20;29.20;;;;;;;-2.88;89.26;101056.55;107855;275;97691;-57
2023/12/08 06:42:58;;;;;;;54.90;27.00;;;;;;;-2.85;89.16;101052.89;107977;275;118634;-58
2023/12/08 06:45:36;;;;;;;58.50;27.40;;;;;;;-2.83;89.08;101052.06;107633;275;156299;-57
2023/12/08 06:48:21;;;;;;;53.30;26.80;;;;;;;-2.82;89.04;101054.64;107930;275;114326;-54
2023/12/08 06:50:58;;;;;;;57.50;27.40;;;;;;;-2.85;89.24;101050.41;107495;275;155079;-54
2023/12/08 06:53:42;;;;;;;59.40;27.20;;;;;;;-2.81;89.13;101044.89;107896;275;97294;-54
2023/12/08 06:56:22;;;;;;;58.70;28.40;;;;;;;-2.72;89.04;101043.64;107518;276;155770;-54
2023/12/08 06:58:55;;;;;;;62.60;28.40;;;;;;;-2.70;88.99;101042.11;107891;275;105063;-57
2023/12/08 07:01:40;;;;;;;53.00;26.50;;;;;;;-2.70;88.94;101042.14;107753;275;156155;-59
2023/12/08 07:04:17;;;;;;;61.60;28.60;;;;;;;-2.73;88.94;101038.25;107687;275;96341;-55
2023/12/08 07:06:53;;;;;;;62.40;29.00;;;;;;;-2.72;88.83;101032.70;107916;275;97919;-55
2023/12/08 07:09:26;;;;;;;58.30;28.70;;;;;;;-2.73;88.84;101023.95;107383;273;155441;-54
2023/12/08 07:11:57;;;;;;;60.30;27.60;;;;;;;-2.76;88.81;101030.13;107887;275;104698;-54
2023/12/08 07:14:29;;;;;;;60.60;28.30;;;;;;;-2.76;88.83;101032.64;107766;275;155659;-58
2023/12/08 07:17:05;;;;;;;58.10;28.70;;;;;;;-2.76;88.83;101035.09;107980;275;94566;-58
2023/12/08 07:19:44;;;;;;;58.80;28.10;;;;;;;-2.74;88.80;101043.42;107815;275;156405;-53
2023/12/08 07:22:23;;;;;;;55.00;27.00;;;;;;;-2.68;88.83;101045.73;107853;275;119940;-54
2023/12/08 07:25:03;;;;;;;69.40;30.00;;;;;;;-2.71;88.82;101047.45;108024;275;103449;-59
2023/12/08 07:27:37;;;;;;;57.30;27.80;;;;;;;-2.63;88.72;101054.90;107686;275;156135;-57
2023/12/08 07:30:14;;;;;;;59.90;27.10;;;;;;;-2.70;88.64;101053.08;107914;275;95166;-56
2023/12/08 07:32:45;;;;;;;60.70;29.50;;;;;;;-2.64;88.55;101048.31;107527;276;155626;-58
2023/12/08 07:35:17;;;;;;;62.20;29.10;;;;;;;-2.60;88.51;101049.27;107898;275;120637;-60
2023/12/08 07:37:59;;;;;;;63.40;28.90;;;;;;;-2.59;88.53;101048.54;107760;275;155213;-58
2023/12/08 07:40:32;;;;;;;60.00;29.30;;;;;;;-2.59;88.49;101053.08;107783;274;113293;-59
2023/12/08 07:43:07;;;;;;;48.50;22.00;;;;;;;-2.60;88.43;101057.55;107891;274;94072;-58
2023/12/08 07:45:42;;;;;;;60.10;28.30;;;;;;;-2.58;88.47;101058.88;107723;275;97824;-55
2023/12/08 07:48:21;;;;;;;59.50;30.00;;;;;;;-2.55;88.44;101063.80;108004;275;119731;-55
2023/12/08 07:50:55;;;;;;;59.70;29.20;;;;;;;-2.47;88.33;101063.64;107803;275;154820;-57
2023/12/08 07:53:29;;;;;;;63.50;28.30;;;;;;;-2.48;88.24;101064.60;107924;271;115008;-60
2023/12/08 07:56:05;;;;;;;59.70;31.20;;;;;;;-2.49;88.29;101064.13;107681;275;154297;-58
2023/12/08 07:58:40;;;;;;;61.20;29.60;;;;;;;-2.49;88.21;101067.17;107804;275;97406;-56
2023/12/08 08:01:16;;;;;;;;;;;;;;;-2.47;88.18;101070.18;107899;275;124665;-56
2023/12/08 08:03:53;;;;;;;62.90;29.30;;;;;;;-2.41;88.12;101072.27;107770;275;104703;-54
2023/12/08 08:06:24;;;;;;;67.30;30.60;;;;;;;-2.35;88.08;101065.98;107956;275;114009;-53
2023/12/08 08:09:04;;;;;;;64.30;29.60;;;;;;;-2.30;87.98;101062.66;107801;275;155959;-59
2023/12/08 08:11:38;;;;;;;65.00;30.00;;;;;;;-2.27;88.01;101059.80;107985;275;98274;-58
2023/12/08 08:14:10;;;;;;;53.90;26.70;;;;;;;-2.25;87.87;101061.66;107849;275;155753;-52
2023/12/08 08:16:46;;;;;;;64.20;30.10;;;;;;;-2.27;88.05;101063.17;108035;275;105071;-57
2023/12/08 08:19:21;;;;;;;56.90;28.90;;;;;;;-2.16;87.97;101053.12;107806;275;154376;-57
2023/12/08 08:21:55;;;;;;;59.00;28.50;;;;;;;-2.15;87.83;101058.89;107805;275;94207;-57
2023/12/08 08:24:33;;;;;;;56.30;29.40;;;;;;;-2.17;87.62;101067.48;107921;275;98193;-55
2023/12/08 08:27:06;;;;;;;62.20;29.50;;;;;;;-2.22;87.59;101071.19;107650;275;155186;-56
2023/12/08 08:29:38;;;;;;;54.50;26.70;;;;;;;-2.23;87.57;101067.88;107987;275;104954;-53
2023/12/08 08:32:17;;;;;;;63.10;30.00;;;;;;;-2.31;87.46;101074.15;107708;275;155214;-53
2023/12/08 08:34:52;;;;;;;55.50;27.20;;;;;;;-2.20;87.46;101074.07;107871;275;95571;-54
2023/12/08 08:37:24;;;;;;;55.90;27.70;;;;;;;-2.19;87.48;101073.95;107830;275;155588;-54
2023/12/08 08:40:00;;;;;;;56.20;28.80;;;;;;;-2.15;87.43;101073.34;107764;275;119051;-58
2023/12/08 08:42:38;;;;;;;64.10;30.90;;;;;;;-2.08;87.31;101068.19;108006;275;105118;-55
2023/12/08 08:45:19;;;;;;;59.70;29.90;;;;;;;-2.07;87.10;101067.05;107771;275;155423;-54
2023/12/08 08:47:53;;;;;;;53.50;26.80;;;;;;;-2.02;87.22;101071.85;107969;275;93485;-55
2023/12/08 08:50:25;;;;;;;55.90;27.90;;;;;;;-2.06;87.03;101072.67;107608;275;154897;-53
2023/12/08 08:52:56;;;;;;;56.20;28.70;;;;;;;-2.07;87.15;101081.02;107711;275;120557;-54
2023/12/08 08:55:37;;;;;;;55.90;27.10;;;;;;;-2.02;87.09;101084.38;107476;275;154925;-54
2023/12/08 08:58:13;;;;;;;55.20;28.80;;;;;;;-2.05;86.87;101084.42;107642;275;113844;-56
2023/12/08 09:00:46;;;;;;;53.70;27.20;;;;;;;-2.01;86.91;101086.95;107871;275;94257;-56
2023/12/08 09:03:18;;;;;;;56.50;29.90;;;;;;;-2.01;86.73;101082.91;107784;275;154541;-53
2023/12/08 09:05:54;;;;;;;62.00;30.20;;;;;;;-1.99;86.86;101078.75;107928;275;120390;-52
2023/12/08 09:08:28;;;;;;;57.40;29.60;;;;;;;-1.94;86.65;101075.27;107749;275;154401;-57
2023/12/08 09:11:04;;;;;;;59.20;30.60;;;;;;;-1.98;86.77;101069.70;107915;275;114592;-58
2023/12/08 09:13:42;;;;;;;55.90;28.70;;;;;;;-2.03;86.81;101061.17;107778;275;154945;-56
2023/12/08 09:16:21;;;;;;;62.00;31.30;;;;;;;-2.00;86.76;101062.39;107843;275;97630;-55
2023/12/08 09:18:55;;;;;;;58.90;30.70;;;;;;;-1.93;86.61;101052.64;107910;275;119103;-53
2023/12/08 09:21:28;;;;;;;;;;;;;;;-1.91;86.48;101049.64;107411;275;209129;-53
2023/12/08 09:24:06;;;;;;;61.10;30.90;;;;;;;-1.85;86.47;101044.02;107671;275;114442;-54
2023/12/08 09:26:42;;;;;;;61.20;30.70;;;;;;;-1.82;86.40;101034.59;107863;275;91569;-55
2023/12/08 09:29:16;;;;;;;64.40;32.00;;;;;;;-1.72;86.37;101030.68;107628;275;154299;-58
2023/12/08 09:31:54;;;;;;;65.50;32.00;;;;;;;-1.66;86.26;101029.94;107933;275;118831;-58
2023/12/08 09:34:38;;;;;;;62.70;31.90;;;;;;;-1.61;86.05;101030.13;107840;275;154502;-53
2023/12/08 09:37:17;;;;;;;58.60;29.40;;;;;;;-1.59;85.88;101026.84;107612;275;113872;-53
2023/12/08 09:39:52;;;;;;;62.50;31.10;;;;;;;-1.63;85.93;101022.45;107820;275;155158;-54
2023/12/08 09:42:31;;;;;;;60.60;30.20;;;;;;;-1.54;85.97;101011.52;107936;275;97246;-54
2023/12/08 09:45:10;;;;;;;60.70;31.20;;;;;;;-1.48;85.96;101012.88;107953;275;120433;-57
2023/12/08 09:47:48;;;;;;;61.30;31.70;;;;;;;-1.56;85.65;101009.00;107745;275;103167;-57
2023/12/08 09:50:21;;;;;;;59.30;31.30;;;;;;;-1.60;85.68;101009.02;107934;275;115212;-58
2023/12/08 09:52:58;;;;;;;65.40;32.20;;;;;;;-1.56;85.78;101016.36;107768;275;155616;-53
2023/12/08 09:55:30;;;;;;;61.40;32.40;;;;;;;-1.54;85.55;101023.52;107956;275;97124;-53
2023/12/08 09:58:04;;;;;;;62.30;31.80;;;;;;;-1.60;85.60;101025.81;107608;276;155342;-58
2023/12/08 10:00:42;;;;;;;63.70;32.00;;;;;;;-1.61;85.49;101029.79;107940;275;105262;-58
2023/12/08 10:03:23;;;;;;;67.00;34.30;;;;;;;-1.67;85.19;101025.06;107790;275;154678;-56
2023/12/08 10:05:56;;;;;;;57.50;29.20;;;;;;;-1.70;85.05;101026.45;107667;275;95198;-56
2023/12/08 10:08:36;;;;;;;60.20;31.00;;;;;;;-1.76;85.29;101024.88;107940;275;95992;-56
2023/12/08 10:11:10;;;;;;;58.90;30.10;;;;;;;-1.73;85.38;101018.86;107810;275;155017;-56
2023/12/08 10:13:44;;;;;;;60.90;31.30;;;;;;;-1.73;85.33;101021.51;107877;275;106782;-53
2023/12/08 10:16:17;;;;;;;61.00;30.80;;;;;;;-1.66;85.39;101021.09;107717;275;155064;-54
2023/12/08 10:19:10;;;;;;;63.30;32.60;;;;;;;-1.54;85.46;101022.81;107877;275;94184;-53
2023/12/08 10:21:44;;;;;;;61.30;31.90;;;;;;;-1.47;85.37;101017.94;107830;275;157189;-53
2023/12/08 10:24:37;;;;;;;59.00;28.30;;;;;;;-1.46;85.21;101022.28;107994;274;121853;-55
2023/12/08 10:27:13;;;;;;;64.10;33.20;;;;;;;-1.46;84.96;101016.80;107952;274;106267;-55
2023/12/08 10:29:50;;;;;;;58.50;30.40;;;;;;;-1.46;84.81;101011.14;107634;275;113812;-52
2023/12/08 10:32:30;;;;;;;60.30;31.20;;;;;;;-1.46;84.69;101009.05;107934;275;95281;-53
2023/12/08 10:35:10;;;;;;;55.80;29.50;;;;;;;-1.44;84.92;101007.98;107680;275;154890;-53
2023/12/08 10:37:51;;;;;;;60.40;32.90;;;;;;;-1.47;84.77;101007.16;107924;275;120541;-53
2023/12/08 10:40:30;;;;;;;59.50;32.00;;;;;;;-1.42;84.83;100998.70;107725;275;154381;-54
2023/12/08 10:43:05;;;;;;;53.10;27.20;;;;;;;-1.42;84.69;100988.60;107844;275;114183;-57
2023/12/08 10:45:37;;;;;;;64.70;33.10;;;;;;;-1.40;84.76;100976.52;107797;275;154181;-57
2023/12/08 10:48:09;;;;;;;58.90;28.40;;;;;;;-1.43;84.49;100969.95;107886;275;98074;-55
2023/12/08 10:50:53;;;;;;;66.20;33.40;;;;;;;-1.44;84.64;100964.03;107941;275;119737;-56
2023/12/08 10:53:32;;;;;;;67.40;35.70;;;;;;;-1.32;84.63;100962.38;107811;275;154980;-56
2023/12/08 10:56:13;;;;;;;61.80;33.60;;;;;;;-1.24;84.64;100961.83;107886;275;114991;-57
2023/12/08 10:59:03;;;;;;;70.60;36.40;;;;;;;-1.08;84.63;100966.10;107797;275;155431;-55
2023/12/08 11:01:41;;;;;;;72.80;36.50;;;;;;;-0.99;84.62;100953.46;107960;275;96341;-55
2023/12/08 11:04:22;;;;;;;68.60;35.30;;;;;;;-0.96;84.70;100953.76;107743;275;154799;-57
2023/12/08 11:07:00;;;;;;;69.50;36.90;;;;;;;-0.91;84.69;100956.77;107583;275;105985;-59
2023/12/08 11:09:40;;;;;;;62.60;33.20;;;;;;;-0.87;84.40;100959.34;107811;275;154403;-57
2023/12/08 11:12:25;;;;;;;64.80;36.40;;;;;;;-0.94;84.13;100958.59;107790;275;93532;-56
2023/12/08 11:15:09;;;;;;;62.30;31.90;;;;;;;-1.05;83.88;100963.39;107980;275;97194;-58
2023/12/08 11:17:50;;;;;;;66.80;33.00;;;;;;;-1.17;83.70;100958.02;107761;275;122822;-53
2023/12/08 11:20:31;;;;;;;64.80;33.80;;;;;;;-1.08;83.97;100955.48;107976;275;104087;-53
2023/12/08 11:23:05;;;;;;;71.60;34.00;;;;;;;-0.98;84.12;100955.84;107420;275;155496;-54
2023/12/08 11:25:45;;;;;;;63.80;33.30;;;;;;;-0.88;84.12;100949.88;107929;275;93895;-54
2023/12/08 11:28:29;;;;;;;65.50;33.00;;;;;;;-0.81;84.02;100939.65;107518;275;155515;-58
2023/12/08 11:31:07;;;;;;;67.30;34.50;;;;;;;-0.81;83.82;100938.40;107979;275;120387;-58
2023/12/08 11:34:02;;;;;;;61.00;31.20;;;;;;;-0.92;83.74;100937.75;107854;275;155230;-53
2023/12/08 11:36:44;;;;;;;67.10;36.00;;;;;;;-0.94;83.90;100940.86;107851;275;114106;-56
2023/12/08 11:39:43;;;;;;;69.40;35.50;;;;;;;-0.92;83.65;100943.61;107810;275;154574;-58
2023/12/08 11:42:16;;;;;;;66.50;33.40;;;;;;;-0.87;83.61;100944.84;107713;275;96782;-58
2023/12/08 11:44:59;;;;;;;64.20;33.10;;;;;;;-0.87;83.65;100941.33;107792;275;119857;-58
2023/12/08 11:47:35;;;;;;;63.20;32.20;;;;;;;-0.82;83.57;100944.15;107628;275;155242;-54
2023/12/08 11:50:12;;;;;;;69.00;36.00;;;;;;;-0.86;83.62;100941.92;107947;275;114185;-57